createdAt,value
2023-03-30T00:01:00.628Z,6.83
2023-03-30T00:03:29.272Z,5.90
2023-03-30T00:05:58.048Z,6.20
2023-03-30T00:08:28.399Z,5.37
2023-03-30T00:11:03.838Z,3.97
2023-03-30T00:13:32.922Z,5.33
2023-03-30T00:16:01.323Z,7.73
2023-03-30T00:18:30.696Z,8.53
2023-03-30T00:20:59.687Z,5.23
2023-03-30T00:23:28.312Z,4.23
2023-03-30T00:25:56.620Z,4.67
2023-03-30T00:28:27.104Z,8.27
2023-03-30T00:30:55.710Z,7.17
2023-03-30T00:33:37.163Z,3.77
2023-03-30T00:36:10.898Z,6.77
2023-03-30T00:38:39.304Z,6.23
2023-03-30T00:41:07.812Z,6.10
2023-03-30T00:43:37.572Z,4.00
2023-03-30T00:46:06.068Z,3.93
2023-03-30T00:48:36.403Z,8.50
2023-03-30T00:51:07.422Z,4.07
2023-03-30T00:53:37.114Z,7.73
2023-03-30T00:56:07.549Z,6.53
2023-03-30T00:58:38.665Z,4.40
2023-03-30T01:01:08.336Z,4.97
2023-03-30T01:03:39.317Z,5.50
2023-03-30T01:06:08.453Z,7.67
2023-03-30T01:08:38.086Z,6.17
2023-03-30T01:11:07.195Z,7.73
2023-03-30T01:13:37.891Z,3.23
2023-03-30T01:16:11.100Z,5.13
2023-03-30T01:18:47.711Z,11.70
2023-03-30T01:21:24.489Z,10.83
2023-03-30T01:24:04.580Z,4.63
2023-03-30T01:26:46.405Z,5.93
2023-03-30T01:29:22.842Z,4.00
2023-03-30T01:32:02.078Z,6.70
2023-03-30T01:34:37.225Z,6.37
2023-03-30T01:37:17.874Z,7.50
2023-03-30T01:39:55.633Z,3.23
2023-03-30T01:42:26.303Z,10.13
2023-03-30T01:44:57.475Z,4.60
2023-03-30T01:47:28.439Z,2.10
2023-03-30T01:50:01.289Z,7.47
2023-03-30T01:52:31.852Z,3.37
2023-03-30T01:55:04.721Z,7.00
2023-03-30T01:57:35.348Z,6.70
2023-03-30T02:00:13.161Z,6.33
2023-03-30T02:02:43.933Z,4.30
2023-03-30T02:05:13.231Z,5.80
2023-03-30T02:07:43.157Z,7.83
2023-03-30T02:10:16.116Z,4.77
2023-03-30T02:12:44.573Z,8.93
2023-03-30T02:15:14.321Z,8.10
2023-03-30T02:17:45.770Z,4.47
2023-03-30T02:20:16.359Z,8.70
2023-03-30T02:22:45.167Z,6.07
2023-03-30T02:25:15.638Z,6.63
2023-03-30T02:27:44.114Z,6.57
2023-03-30T02:30:12.652Z,9.63
2023-03-30T02:32:42.776Z,7.00
2023-03-30T02:35:32.394Z,4.63
2023-03-30T02:38:18.701Z,7.83
2023-03-30T02:40:54.390Z,4.63
2023-03-30T02:43:29.395Z,5.57
2023-03-30T02:46:04.368Z,7.30
2023-03-30T02:48:37.138Z,7.30
2023-03-30T02:51:12.986Z,9.47
2023-03-30T02:53:45.648Z,5.90
2023-03-30T02:56:17.118Z,3.77
2023-03-30T02:58:47.278Z,5.90
2023-03-30T03:01:18.282Z,7.37
2023-03-30T03:03:48.227Z,8.07
2023-03-30T03:06:16.773Z,6.60
2023-03-30T03:08:47.858Z,6.03
2023-03-30T03:11:17.830Z,9.90
2023-03-30T03:13:46.164Z,6.63
2023-03-30T03:16:16.467Z,7.90
2023-03-30T03:18:44.869Z,8.23
2023-03-30T03:21:14.297Z,6.30
2023-03-30T03:23:42.672Z,9.67
2023-03-30T03:26:12.691Z,9.73
2023-03-30T03:28:42.849Z,4.97
2023-03-30T03:31:12.205Z,7.83
2023-03-30T03:33:40.599Z,5.10
2023-03-30T03:36:09.324Z,7.70
2023-03-30T03:38:37.803Z,7.10
2023-03-30T03:41:06.859Z,13.83
2023-03-30T03:43:35.305Z,12.60
2023-03-30T03:46:04.996Z,8.07
2023-03-30T03:48:33.377Z,12.20
2023-03-30T03:51:01.881Z,7.50
2023-03-30T03:53:30.923Z,8.00
2023-03-30T03:55:59.544Z,10.70
2023-03-30T03:58:27.899Z,13.10
2023-03-30T04:00:59.718Z,14.57
2023-03-30T04:03:29.670Z,9.60
2023-03-30T04:06:00.347Z,7.40
2023-03-30T04:08:29.937Z,8.80
2023-03-30T04:10:58.484Z,9.10
2023-03-30T04:13:26.860Z,13.07
2023-03-30T04:15:55.507Z,10.53
2023-03-30T04:18:24.134Z,9.13
2023-03-30T04:20:54.008Z,7.23
2023-03-30T04:23:22.392Z,9.03
2023-03-30T04:28:35.234Z,8.50
2023-03-30T04:31:05.145Z,13.97
2023-03-30T04:33:38.884Z,19.07
2023-03-30T04:36:10.772Z,11.50
2023-03-30T04:38:55.129Z,20.67
2023-03-30T04:41:26.263Z,13.30
2023-03-30T04:43:54.565Z,19.30
2023-03-30T04:46:23.087Z,6.93
2023-03-30T04:48:51.380Z,12.30
2023-03-30T04:51:21.131Z,10.23
2023-03-30T04:54:01.340Z,11.57
2023-03-30T04:56:29.718Z,12.40
2023-03-30T04:58:58.153Z,11.13
2023-03-30T05:01:27.427Z,19.33
2023-03-30T05:03:55.927Z,10.33
2023-03-30T05:06:25.751Z,10.10
2023-03-30T05:08:54.199Z,9.83
2023-03-30T05:11:22.409Z,14.20
2023-03-30T05:13:52.411Z,10.20
2023-03-30T05:16:22.042Z,12.17
2023-03-30T05:18:51.805Z,15.33
2023-03-30T05:21:21.364Z,11.30
2023-03-30T05:23:52.939Z,9.30
2023-03-30T05:26:22.330Z,13.57
2023-03-30T05:28:51.616Z,12.57
2023-03-30T05:31:20.799Z,8.53
2023-03-30T05:33:49.618Z,7.20
2023-03-30T05:36:18.252Z,14.00
2023-03-30T05:38:47.561Z,16.83
2023-03-30T05:41:17.581Z,15.17
2023-03-30T05:43:47.547Z,12.37
2023-03-30T05:46:15.981Z,9.90
2023-03-30T05:48:44.305Z,9.77
2023-03-30T05:51:12.609Z,14.83
2023-03-30T05:53:41.732Z,12.07
2023-03-30T05:56:11.124Z,8.70
2023-03-30T05:58:40.857Z,11.33
2023-03-30T06:01:12.221Z,10.23
2023-03-30T06:03:42.225Z,8.87
2023-03-30T06:06:11.183Z,13.33
2023-03-30T06:08:39.794Z,16.10
2023-03-30T06:11:12.609Z,16.43
2023-03-30T06:13:42.821Z,20.10
2023-03-30T06:16:11.292Z,11.67
2023-03-30T06:18:39.765Z,9.77
2023-03-30T06:21:08.763Z,9.93
2023-03-30T06:23:38.028Z,12.63
2023-03-30T06:26:07.653Z,8.70
2023-03-30T06:28:36.109Z,15.27
2023-03-30T06:31:10.739Z,12.80
2023-03-30T06:33:50.269Z,14.03
2023-03-30T06:36:18.908Z,13.97
2023-03-30T06:38:48.388Z,10.67
2023-03-30T06:41:16.712Z,7.97
2023-03-30T06:43:45.047Z,10.53
2023-03-30T06:46:16.079Z,12.83
2023-03-30T06:48:44.477Z,15.80
2023-03-30T06:51:14.518Z,9.43
2023-03-30T06:53:42.988Z,7.43
2023-03-30T06:56:13.630Z,10.87
2023-03-30T06:58:43.317Z,10.03
2023-03-30T07:01:15.954Z,10.10
2023-03-30T07:03:45.772Z,11.70
2023-03-30T07:06:14.412Z,11.50
2023-03-30T07:08:42.888Z,9.43
2023-03-30T07:11:11.415Z,9.50
2023-03-30T07:13:40.143Z,12.30
2023-03-30T07:16:08.990Z,9.73
2023-03-30T07:18:37.427Z,12.27
2023-03-30T07:21:07.544Z,9.67
2023-03-30T07:23:36.193Z,10.73
2023-03-30T07:26:04.621Z,12.63
2023-03-30T07:28:33.179Z,9.20
2023-03-30T07:31:09.217Z,6.07
2023-03-30T07:33:38.176Z,10.47
2023-03-30T07:36:09.078Z,7.73
2023-03-30T07:38:47.325Z,9.93
2023-03-30T07:41:16.631Z,14.23
2023-03-30T07:43:45.169Z,9.80
2023-03-30T07:46:14.055Z,12.03
2023-03-30T07:48:42.857Z,5.27
2023-03-30T07:51:13.842Z,8.47
2023-03-30T07:53:44.535Z,9.20
2023-03-30T07:56:12.877Z,10.03
2023-03-30T07:59:29.461Z,9.07
2023-03-30T08:02:49.970Z,9.10
2023-03-30T09:45:01.832Z,4.87
2023-03-30T09:47:31.137Z,6.27
2023-03-30T09:50:00.064Z,9.63
2023-03-30T09:52:29.836Z,9.83
2023-03-30T09:54:58.612Z,9.10
2023-03-30T09:57:29.874Z,5.20
2023-03-30T10:00:09.768Z,6.87
2023-03-30T10:02:41.434Z,9.27
2023-03-30T10:05:25.873Z,10.20
2023-03-30T10:07:55.450Z,12.33
2023-03-30T10:10:31.991Z,9.37
2023-03-30T10:13:04.667Z,10.57
2023-03-30T10:15:36.317Z,11.20
2023-03-30T10:18:09.000Z,7.30
2023-03-30T10:20:39.005Z,9.00
2023-03-30T10:23:08.935Z,5.77
2023-03-30T10:25:38.525Z,7.80
2023-03-30T10:28:07.403Z,8.37
2023-03-30T10:30:37.810Z,6.57
2023-03-30T10:33:06.279Z,12.90
2023-03-30T10:35:36.108Z,12.30
2023-03-30T10:38:05.938Z,6.93
2023-03-30T10:40:36.697Z,15.70
2023-03-30T10:43:05.959Z,10.73
2023-03-30T10:45:36.603Z,8.07
2023-03-30T10:48:19.621Z,5.77
2023-03-30T10:50:52.212Z,12.10
2023-03-30T10:53:27.974Z,6.20
2023-03-30T10:56:00.221Z,9.90
2023-03-30T10:58:33.996Z,9.27
2023-03-30T11:01:11.144Z,9.60
2023-03-30T11:03:41.886Z,8.27
2023-03-30T11:06:13.711Z,9.80
2023-03-30T11:08:44.774Z,5.77
2023-03-30T11:11:16.905Z,9.63
2023-03-30T11:13:47.244Z,8.80
2023-03-30T11:16:18.712Z,7.67
2023-03-30T11:18:52.808Z,10.17
2023-03-30T11:21:23.203Z,18.07
2023-03-30T11:23:54.658Z,8.20
2023-03-30T11:26:27.415Z,10.17
2023-03-30T11:29:00.408Z,9.43
2023-03-30T11:31:34.411Z,9.77
2023-03-30T11:34:07.152Z,11.17
2023-03-30T11:36:40.032Z,6.37
2023-03-30T11:39:25.083Z,11.27
2023-03-30T11:42:02.695Z,7.17
2023-03-30T11:44:31.419Z,10.00
2023-03-30T11:47:05.278Z,9.43
2023-03-30T11:49:42.684Z,8.27
2023-03-30T11:52:17.876Z,6.47
2023-03-30T11:55:04.106Z,5.20
2023-03-30T11:57:36.097Z,4.23
2023-03-30T12:00:09.820Z,8.83
2023-03-30T12:02:42.956Z,4.80
2023-03-30T12:05:18.638Z,6.13
2023-03-30T12:07:50.819Z,8.00
2023-03-30T12:10:22.503Z,5.40
2023-03-30T12:12:52.026Z,3.20
2023-03-30T12:15:27.104Z,6.10
2023-03-30T12:17:56.976Z,8.73
2023-03-30T12:20:35.967Z,8.93
2023-03-30T12:23:06.757Z,6.00
2023-03-30T12:25:37.692Z,7.20
2023-03-30T12:28:12.276Z,5.77
2023-03-30T12:30:45.925Z,8.03
2023-03-30T12:33:14.940Z,6.77
2023-03-30T12:36:02.168Z,4.90
2023-03-30T12:38:39.119Z,4.93
2023-03-30T12:41:15.447Z,6.50
2023-03-30T12:43:49.601Z,5.87
2023-03-30T12:46:20.310Z,7.20
2023-03-30T12:48:55.629Z,6.20
2023-03-30T12:51:33.046Z,6.27
2023-03-30T12:54:16.496Z,6.63
2023-03-30T12:57:12.749Z,7.73
2023-03-30T13:13:47.528Z,8.03
2023-03-30T13:16:37.283Z,7.93
2023-03-30T13:19:15.510Z,2.90
2023-03-30T13:21:50.856Z,2.80
2023-03-30T13:24:33.906Z,3.13
2023-03-30T13:27:22.011Z,3.37
2023-03-30T13:29:55.509Z,4.90
2023-03-30T13:32:29.438Z,6.23
2023-03-30T13:35:11.815Z,3.77
2023-03-30T13:37:54.181Z,5.60
2023-03-30T13:40:39.697Z,4.80
2023-03-30T13:43:14.964Z,2.03
2023-03-30T13:45:47.263Z,3.07
2023-03-30T13:48:24.410Z,3.33
2023-03-30T13:50:55.314Z,3.77
2023-03-30T13:53:25.113Z,3.23
2023-03-30T13:55:53.423Z,2.33
2023-03-30T13:58:23.612Z,3.87
2023-03-30T14:00:53.000Z,2.70
2023-03-30T14:03:30.175Z,4.27
2023-03-30T14:06:03.520Z,4.30
2023-03-30T14:08:35.653Z,3.67
2023-03-30T14:11:06.965Z,5.30
2023-03-30T14:13:38.149Z,4.90
2023-03-30T14:16:07.885Z,5.17
2023-03-30T14:18:38.028Z,3.43
2023-03-30T14:21:08.561Z,5.43
2023-03-30T14:23:38.229Z,4.37
2023-03-30T14:26:08.213Z,2.73
2023-03-30T14:28:38.397Z,1.93
2023-03-30T14:31:13.422Z,3.70
2023-03-30T14:33:43.352Z,6.40
2023-03-30T14:36:12.732Z,3.63
2023-03-30T14:38:42.344Z,4.77
2023-03-30T14:41:12.284Z,3.47
2023-03-30T14:43:41.777Z,4.93
2023-03-30T14:46:12.412Z,4.93
2023-03-30T14:48:42.025Z,5.47
2023-03-30T14:51:23.667Z,4.73
2023-03-30T14:53:52.847Z,7.43
2023-03-30T14:56:22.649Z,6.10
2023-03-30T14:58:51.987Z,3.90
2023-03-30T15:01:24.742Z,5.93
2023-03-30T15:03:54.425Z,10.73
2023-03-30T15:06:25.208Z,5.60
2023-03-30T15:08:54.073Z,6.03
2023-03-30T15:11:23.319Z,6.83
2023-03-30T15:13:53.224Z,5.00
2023-03-30T15:16:23.788Z,6.43
2023-03-30T15:18:52.887Z,7.10
2023-03-30T15:21:21.890Z,4.53
2023-03-30T15:23:52.377Z,4.67
2023-03-30T15:26:21.318Z,4.17
2023-03-30T15:28:51.381Z,4.70
2023-03-30T15:31:20.645Z,5.40
2023-03-30T15:33:52.783Z,5.17
2023-03-30T15:36:22.999Z,10.57
2023-03-30T15:38:54.322Z,5.60
2023-03-30T15:41:24.691Z,5.87
2023-03-30T15:44:00.112Z,6.30
2023-03-30T15:46:29.250Z,7.20
2023-03-30T15:48:59.961Z,2.93
2023-03-30T15:54:31.163Z,5.00
2023-03-30T15:57:04.055Z,3.90
2023-03-30T15:59:33.513Z,5.00
2023-03-30T16:02:05.666Z,4.93
2023-03-30T16:04:34.621Z,5.93
2023-03-30T16:07:03.922Z,4.83
2023-03-30T16:09:33.748Z,3.50
2023-03-30T16:12:02.278Z,6.07
2023-03-30T16:14:32.997Z,5.20
2023-03-30T16:17:01.517Z,4.10
2023-03-30T16:19:30.264Z,7.07
2023-03-30T16:21:58.755Z,3.03
2023-03-30T16:24:27.159Z,5.13
2023-03-30T16:26:58.677Z,6.70
2023-03-30T16:29:27.722Z,6.57
2023-03-30T16:31:56.744Z,4.60
2023-03-30T16:34:27.683Z,5.97
2023-03-30T16:36:56.229Z,4.83
2023-03-30T16:39:25.386Z,16.70
2023-03-30T16:41:54.161Z,7.40
2023-03-30T16:44:24.869Z,5.17
2023-03-30T16:46:53.677Z,6.13
2023-03-30T16:49:23.685Z,4.87
2023-03-30T16:51:53.706Z,3.63
2023-03-30T16:54:32.025Z,5.30
2023-03-30T16:57:02.003Z,6.97
2023-03-30T16:59:32.594Z,5.27
2023-03-30T17:02:02.580Z,4.47
2023-03-30T17:04:31.014Z,4.40
2023-03-30T17:06:59.593Z,4.10
2023-03-30T17:09:28.005Z,5.03
2023-03-30T17:11:56.406Z,5.23
2023-03-30T17:14:24.888Z,5.10
2023-03-30T17:16:54.746Z,3.03
2023-03-30T17:19:23.086Z,5.27
2023-03-30T17:21:51.866Z,6.87
2023-03-30T17:24:20.241Z,6.60
2023-03-30T17:26:48.633Z,4.43
2023-03-30T17:29:16.947Z,4.50
2023-03-30T17:31:46.118Z,7.00
2023-03-30T17:34:16.272Z,6.97
2023-03-30T17:36:44.557Z,3.93
2023-03-30T17:39:14.606Z,5.83
2023-03-30T17:41:42.946Z,6.40
2023-03-30T17:44:11.329Z,6.97
2023-03-30T17:46:43.001Z,5.97
2023-03-30T17:49:16.338Z,4.60
2023-03-30T17:51:46.269Z,5.67
2023-03-30T17:54:14.772Z,4.70
2023-03-30T17:56:43.276Z,4.30
2023-03-30T17:59:12.125Z,5.63
2023-03-30T18:01:40.689Z,4.90
2023-03-30T18:04:09.320Z,5.83
2023-03-30T18:06:37.847Z,6.10
2023-03-30T18:09:08.175Z,6.83
2023-03-30T18:11:36.541Z,6.43
2023-03-30T18:14:04.958Z,4.47
2023-03-30T18:16:33.396Z,4.83
2023-03-30T18:19:04.301Z,6.47
2023-03-30T18:21:32.765Z,8.97
2023-03-30T18:24:03.053Z,7.03
2023-03-30T18:26:34.184Z,7.10
2023-03-30T18:29:03.281Z,8.77
2023-03-30T18:31:32.366Z,4.57
2023-03-30T18:34:00.756Z,7.57
2023-03-30T18:36:29.407Z,8.63
2023-03-30T18:38:58.863Z,8.87
2023-03-30T18:41:32.386Z,4.40
2023-03-30T18:44:02.758Z,5.87
2023-03-30T18:46:31.695Z,10.37
2023-03-30T18:49:01.277Z,5.80
2023-03-30T18:51:31.667Z,7.63
2023-03-30T18:54:00.052Z,3.53
2023-03-30T18:56:28.326Z,4.53
2023-03-30T18:58:57.361Z,3.93
2023-03-30T19:01:27.429Z,5.60
2023-03-30T19:03:55.810Z,5.30
2023-03-30T19:06:24.410Z,3.30
2023-03-30T19:08:55.141Z,6.93
2023-03-30T19:11:26.744Z,5.33
2023-03-30T19:13:55.073Z,4.60
2023-03-30T19:16:23.785Z,5.77
2023-03-30T19:18:53.825Z,4.23
2023-03-30T19:21:22.567Z,6.40
2023-03-30T19:23:51.608Z,5.27
2023-03-30T19:26:21.828Z,3.97
2023-03-30T19:28:51.010Z,4.73
2023-03-30T19:31:19.397Z,5.40
2023-03-30T19:33:48.009Z,3.73
2023-03-30T19:36:17.809Z,3.23
2023-03-30T19:38:46.529Z,4.60
2023-03-30T19:41:15.939Z,4.17
2023-03-30T19:43:45.615Z,5.10
2023-03-30T19:46:13.973Z,4.80
2023-03-30T19:48:43.156Z,4.07
2023-03-30T19:51:12.113Z,4.73
2023-03-30T19:53:42.944Z,6.30
2023-03-30T19:56:11.429Z,5.20
2023-03-30T19:58:39.907Z,5.53
2023-03-30T20:01:08.713Z,2.90
2023-03-30T20:03:37.488Z,3.43
2023-03-30T20:06:09.583Z,4.00
2023-03-30T20:08:40.205Z,4.40
2023-03-30T20:11:10.680Z,5.00
2023-03-30T20:13:45.416Z,5.00
2023-03-30T20:16:20.432Z,6.57
2023-03-30T20:18:50.658Z,3.37
2023-03-30T20:21:19.275Z,3.73
2023-03-30T20:23:48.216Z,2.60
2023-03-30T20:26:19.546Z,3.33
2023-03-30T20:28:48.277Z,3.43
2023-03-30T20:31:18.015Z,3.30
2023-03-30T20:33:47.265Z,5.10
2023-03-30T20:41:59.009Z,3.20
2023-03-30T20:44:31.794Z,3.77
2023-03-30T20:47:01.725Z,2.43
2023-03-30T20:49:30.197Z,2.37
2023-03-30T20:52:28.745Z,2.93
2023-03-30T20:54:57.360Z,3.87
2023-03-30T20:57:27.526Z,2.93
2023-03-30T20:59:56.027Z,4.30
2023-03-30T21:02:24.501Z,2.43
2023-03-30T21:04:53.048Z,4.00
2023-03-30T21:07:24.581Z,2.10
2023-03-30T21:09:52.791Z,1.97
2023-03-30T21:12:21.095Z,3.50
2023-03-30T21:14:50.947Z,4.80
2023-03-30T21:17:19.265Z,2.77
2023-03-30T21:19:47.570Z,2.27
2023-03-30T21:22:17.926Z,2.70
2023-03-30T21:24:46.496Z,3.87
2023-03-30T21:27:15.016Z,3.63
2023-03-30T21:29:43.369Z,1.87
2023-03-30T21:32:13.037Z,4.53
2023-03-30T21:34:41.388Z,4.97
2023-03-30T21:37:09.793Z,5.10
2023-03-30T21:39:38.259Z,2.93
2023-03-30T21:42:07.280Z,3.13
2023-03-30T21:44:35.705Z,4.67
2023-03-30T21:47:04.034Z,5.30
2023-03-30T21:49:34.186Z,2.47
2023-03-30T21:52:02.694Z,4.07
2023-03-30T21:54:31.090Z,6.13
2023-03-30T21:57:00.673Z,4.43
2023-03-30T21:59:29.250Z,1.77
2023-03-30T22:01:57.952Z,2.90
2023-03-30T22:04:26.456Z,4.70
2023-03-30T22:06:56.213Z,6.90
2023-03-30T22:09:24.774Z,3.73
2023-03-30T22:11:55.456Z,6.13
2023-03-30T22:14:24.213Z,4.03
2023-03-30T22:16:52.617Z,7.10
2023-03-30T22:19:22.905Z,4.33
2023-03-30T22:21:52.026Z,3.93
2023-03-30T22:24:21.830Z,4.83
2023-03-30T22:26:51.423Z,6.00
2023-03-30T22:29:34.183Z,4.67
2023-03-30T22:32:11.615Z,3.23
2023-03-30T22:34:41.036Z,4.90
2023-03-30T22:37:09.543Z,6.20
2023-03-30T22:39:39.917Z,2.87
2023-03-30T22:48:09.158Z,6.60
2023-03-30T22:50:37.950Z,5.73
2023-03-30T22:53:07.145Z,4.60
2023-03-30T22:55:36.963Z,5.57
2023-03-30T22:58:05.662Z,4.07
2023-03-30T23:00:34.100Z,4.07
2023-03-30T23:03:02.724Z,5.90
2023-03-30T23:05:34.136Z,5.57
2023-03-30T23:08:12.381Z,6.73
2023-03-30T23:10:46.038Z,6.43
2023-03-30T23:15:51.143Z,4.73
2023-03-30T23:18:19.636Z,5.03
2023-03-30T23:20:48.099Z,6.60
2023-03-30T23:23:17.177Z,5.10
2023-03-30T23:25:50.440Z,4.33
2023-03-30T23:28:19.126Z,6.97
2023-03-30T23:30:47.707Z,5.20
2023-03-30T23:33:16.519Z,6.80
2023-03-30T23:35:50.215Z,7.03
2023-03-30T23:38:18.747Z,5.53
2023-03-30T23:40:49.246Z,6.27
2023-03-30T23:43:29.937Z,6.30
2023-03-30T23:45:58.376Z,12.67
2023-03-30T23:48:27.179Z,4.80
2023-03-30T23:50:55.521Z,8.73
2023-03-30T23:53:25.014Z,7.40
2023-03-30T23:55:54.918Z,6.90
2023-03-30T23:58:23.630Z,6.03
